Airfield :
LOGIN :

Register | Disclaimer

   EN    FR    IT 

 










Legend :    VFR   Marginal VFR   IFR   Intensive IFR   Very Intensive IFR
Visi :
Ceiling :
>= 8 km
>= 3000ft
5 to 8 km
1000 to 3000 ft
1500m to 5 km
500 to 1000 ft
800 to 1500m
200 to 500 ft
< 800m
< 200 ft
Symbols :   Thunderstorms  Fog  Heavy snow  Heavy precipitations  Wind > 20 kt
SIGMETs :     Misc.  Thunderstorms  Icing  Turbulence  Mountain Waves  Volcanic Ashes







- Airport Elevation : 202 ft
- IATA code : LGW
- Download approach charts


EGKK - London Gatwick

CURRENT METAR :
  • 210350Z 10004KT 3600 -RA BR FEW006 BKN012 02/02 Q1005

EXPIRED METARs :
  • 210320Z VRB02KT 4000 -RA BR BKN008 02/02 Q1005
  • 210250Z VRB02KT 4000 BR BKN020 01/01 Q1005
  • 210220Z 05004KT 030V090 5000 -RASN BR FEW006 BKN032 02/01 Q1005
  • 210150Z VRB02KT 5000 -RASN BKN004 BKN019 OVC026 02/01 Q1005
  • 210120Z 03003KT 5000 -SN BKN004 OVC024 02/01 Q1005

TAF AMD TAF EGKK
Valid from the 21 at 01:00 until the 22 at 06:00 UTC


210152Z 2101/2206 06007KT 9999 BKN025
TEMPO 2102/2104 3000 -SN BR BKN003
BECMG 2103/2106 14010KT
TEMPO 2104/2109 3000 -SHRA BR BKN003
PROB30
TEMPO 2202/2206 8000 -SHRA BKN012
No reported NOTAMs for that airfield.
1 SIGMET reported for the London FIR (EGTT) :
 
Severe mountain waves
EGTT SIGMET 01 VALID 210100/210500 EGRR
EGTT LONDON FIR SEV MTW FCST WI N5500 W00200 - N5356 W00130 - N5345 W00530 - N5500 W00532 - N5500 W00530 - N5500 W00200 FL030/120 MOV N 05KT WKN=



MET'MAP, your aeronautical weather chart ! - Copyright ORBIFLY December 2007 - Disclaimer

ORBIFLY MET'MAP TEAM :

Programming & Development : Alexandra Zaïnal
Concept & Development : Baudouin d'Aumeries
Co-Development & Prog : Marc-Olivier Méhu
Technical & hardware support : Manuel Goepfert

Contact : metmap@orbifly.com




SOURCES & CREDITS :

   NOAA